sensor_id;sensor_type;location;lat;lon;timestamp;P1;durP1;ratioP1;P2;durP2;ratioP2
61104;SDS011;46987;32.638;-115.438;2023-08-31T00:01:15;11.05;;;2.88;;
61104;SDS011;46987;32.638;-115.438;2023-08-31T00:03:42;10.63;;;2.78;;
61104;SDS011;46987;32.638;-115.438;2023-08-31T00:06:10;14.45;;;3.38;;
61104;SDS011;46987;32.638;-115.438;2023-08-31T00:08:36;13.13;;;2.88;;
61104;SDS011;46987;32.638;-115.438;2023-08-31T00:11:03;9.85;;;2.83;;
61104;SDS011;46987;32.638;-115.438;2023-08-31T00:13:30;10.60;;;2.65;;
61104;SDS011;46987;32.638;-115.438;2023-08-31T00:15:57;9.68;;;3.20;;
61104;SDS011;46987;32.638;-115.438;2023-08-31T00:18:25;11.27;;;3.08;;
61104;SDS011;46987;32.638;-115.438;2023-08-31T00:20:52;12.30;;;2.72;;
61104;SDS011;46987;32.638;-115.438;2023-08-31T00:23:20;11.00;;;2.72;;
61104;SDS011;46987;32.638;-115.438;2023-08-31T00:25:47;13.65;;;2.67;;
61104;SDS011;46987;32.638;-115.438;2023-08-31T00:28:14;13.30;;;3.13;;
61104;SDS011;46987;32.638;-115.438;2023-08-31T00:30:42;11.02;;;2.58;;
61104;SDS011;46987;32.638;-115.438;2023-08-31T00:33:12;10.20;;;2.70;;
61104;SDS011;46987;32.638;-115.438;2023-08-31T00:35:39;11.18;;;2.80;;
61104;SDS011;46987;32.638;-115.438;2023-08-31T00:38:11;10.23;;;3.45;;
61104;SDS011;46987;32.638;-115.438;2023-08-31T00:40:40;10.60;;;3.03;;
61104;SDS011;46987;32.638;-115.438;2023-08-31T00:43:09;13.27;;;2.95;;
61104;SDS011;46987;32.638;-115.438;2023-08-31T00:45:35;11.75;;;3.55;;
61104;SDS011;46987;32.638;-115.438;2023-08-31T00:48:03;9.70;;;2.50;;
61104;SDS011;46987;32.638;-115.438;2023-08-31T00:50:30;9.30;;;2.53;;
61104;SDS011;46987;32.638;-115.438;2023-08-31T00:52:57;11.85;;;2.88;;
61104;SDS011;46987;32.638;-115.438;2023-08-31T00:55:24;10.25;;;2.60;;
61104;SDS011;46987;32.638;-115.438;2023-08-31T00:57:52;12.30;;;2.50;;
61104;SDS011;46987;32.638;-115.438;2023-08-31T01:00:19;7.30;;;2.35;;
61104;SDS011;46987;32.638;-115.438;2023-08-31T01:02:50;9.30;;;2.63;;
61104;SDS011;46987;32.638;-115.438;2023-08-31T01:05:25;10.55;;;2.47;;
61104;SDS011;46987;32.638;-115.438;2023-08-31T01:08:00;10.13;;;2.40;;
61104;SDS011;46987;32.638;-115.438;2023-08-31T01:10:32;9.00;;;2.50;;
61104;SDS011;46987;32.638;-115.438;2023-08-31T01:13:07;9.20;;;2.75;;
61104;SDS011;46987;32.638;-115.438;2023-08-31T01:15:39;8.95;;;2.58;;
61104;SDS011;46987;32.638;-115.438;2023-08-31T01:18:08;8.68;;;2.60;;
61104;SDS011;46987;32.638;-115.438;2023-08-31T01:20:45;11.30;;;2.63;;
61104;SDS011;46987;32.638;-115.438;2023-08-31T01:23:15;9.15;;;2.67;;
61104;SDS011;46987;32.638;-115.438;2023-08-31T01:25:45;12.23;;;2.90;;
61104;SDS011;46987;32.638;-115.438;2023-08-31T01:28:15;12.18;;;2.92;;
61104;SDS011;46987;32.638;-115.438;2023-08-31T01:30:42;14.63;;;3.58;;
61104;SDS011;46987;32.638;-115.438;2023-08-31T01:33:08;10.90;;;2.50;;
61104;SDS011;46987;32.638;-115.438;2023-08-31T01:35:36;13.55;;;3.28;;
61104;SDS011;46987;32.638;-115.438;2023-08-31T01:38:04;13.15;;;2.97;;
61104;SDS011;46987;32.638;-115.438;2023-08-31T01:40:36;13.30;;;3.33;;
61104;SDS011;46987;32.638;-115.438;2023-08-31T01:43:06;11.90;;;2.88;;
61104;SDS011;46987;32.638;-115.438;2023-08-31T01:45:35;11.85;;;2.95;;
61104;SDS011;46987;32.638;-115.438;2023-08-31T01:48:03;8.60;;;2.40;;
61104;SDS011;46987;32.638;-115.438;2023-08-31T01:50:30;10.15;;;3.40;;
61104;SDS011;46987;32.638;-115.438;2023-08-31T01:52:57;12.77;;;3.08;;
61104;SDS011;46987;32.638;-115.438;2023-08-31T01:55:28;11.88;;;2.75;;
61104;SDS011;46987;32.638;-115.438;2023-08-31T01:57:56;14.95;;;3.22;;
61104;SDS011;46987;32.638;-115.438;2023-08-31T02:00:27;10.02;;;2.67;;
61104;SDS011;46987;32.638;-115.438;2023-08-31T02:02:55;10.02;;;2.75;;
61104;SDS011;46987;32.638;-115.438;2023-08-31T02:05:22;11.27;;;2.88;;
61104;SDS011;46987;32.638;-115.438;2023-08-31T02:07:49;12.75;;;3.25;;
61104;SDS011;46987;32.638;-115.438;2023-08-31T02:10:16;12.60;;;3.03;;
61104;SDS011;46987;32.638;-115.438;2023-08-31T02:12:43;13.70;;;3.17;;
61104;SDS011;46987;32.638;-115.438;2023-08-31T02:15:09;12.25;;;3.30;;
61104;SDS011;46987;32.638;-115.438;2023-08-31T02:17:38;10.88;;;3.40;;
61104;SDS011;46987;32.638;-115.438;2023-08-31T02:20:05;11.32;;;3.15;;
61104;SDS011;46987;32.638;-115.438;2023-08-31T02:22:33;11.52;;;3.42;;
61104;SDS011;46987;32.638;-115.438;2023-08-31T02:25:00;15.90;;;3.70;;
61104;SDS011;46987;32.638;-115.438;2023-08-31T02:27:29;14.85;;;4.20;;
61104;SDS011;46987;32.638;-115.438;2023-08-31T02:29:56;19.08;;;5.13;;
61104;SDS011;46987;32.638;-115.438;2023-08-31T02:32:23;15.73;;;3.88;;
61104;SDS011;46987;32.638;-115.438;2023-08-31T02:34:52;16.65;;;4.05;;
61104;SDS011;46987;32.638;-115.438;2023-08-31T02:37:19;16.08;;;4.35;;
61104;SDS011;46987;32.638;-115.438;2023-08-31T02:39:47;12.48;;;4.32;;
61104;SDS011;46987;32.638;-115.438;2023-08-31T02:42:14;11.43;;;3.50;;
61104;SDS011;46987;32.638;-115.438;2023-08-31T02:44:40;12.73;;;3.50;;
61104;SDS011;46987;32.638;-115.438;2023-08-31T02:47:07;14.82;;;3.78;;
61104;SDS011;46987;32.638;-115.438;2023-08-31T02:49:34;15.25;;;3.78;;
61104;SDS011;46987;32.638;-115.438;2023-08-31T02:52:02;14.50;;;3.60;;
61104;SDS011;46987;32.638;-115.438;2023-08-31T02:54:29;13.98;;;3.38;;
61104;SDS011;46987;32.638;-115.438;2023-08-31T02:56:56;10.10;;;3.42;;
61104;SDS011;46987;32.638;-115.438;2023-08-31T02:59:22;13.15;;;3.40;;
61104;SDS011;46987;32.638;-115.438;2023-08-31T03:01:49;12.00;;;3.50;;
61104;SDS011;46987;32.638;-115.438;2023-08-31T03:04:16;11.05;;;3.25;;
61104;SDS011;46987;32.638;-115.438;2023-08-31T03:06:43;10.95;;;3.53;;
61104;SDS011;46987;32.638;-115.438;2023-08-31T03:09:12;13.68;;;3.53;;
61104;SDS011;46987;32.638;-115.438;2023-08-31T03:11:39;11.02;;;2.88;;
61104;SDS011;46987;32.638;-115.438;2023-08-31T03:14:06;9.02;;;3.40;;
61104;SDS011;46987;32.638;-115.438;2023-08-31T03:16:35;12.10;;;3.05;;
61104;SDS011;46987;32.638;-115.438;2023-08-31T03:19:03;11.52;;;3.30;;
61104;SDS011;46987;32.638;-115.438;2023-08-31T03:21:30;13.93;;;3.30;;
61104;SDS011;46987;32.638;-115.438;2023-08-31T03:23:56;13.23;;;4.00;;
61104;SDS011;46987;32.638;-115.438;2023-08-31T03:26:24;10.55;;;3.47;;
61104;SDS011;46987;32.638;-115.438;2023-08-31T03:28:51;12.82;;;2.90;;
61104;SDS011;46987;32.638;-115.438;2023-08-31T03:31:18;11.05;;;3.35;;
61104;SDS011;46987;32.638;-115.438;2023-08-31T03:33:44;13.05;;;3.45;;
61104;SDS011;46987;32.638;-115.438;2023-08-31T03:36:11;10.60;;;3.40;;
61104;SDS011;46987;32.638;-115.438;2023-08-31T03:38:38;12.60;;;3.80;;
61104;SDS011;46987;32.638;-115.438;2023-08-31T03:41:05;14.20;;;4.60;;
61104;SDS011;46987;32.638;-115.438;2023-08-31T03:43:33;14.60;;;5.35;;
61104;SDS011;46987;32.638;-115.438;2023-08-31T03:46:00;16.77;;;8.25;;
61104;SDS011;46987;32.638;-115.438;2023-08-31T03:48:27;16.20;;;8.05;;
61104;SDS011;46987;32.638;-115.438;2023-08-31T03:50:53;16.65;;;7.03;;
61104;SDS011;46987;32.638;-115.438;2023-08-31T03:53:22;13.40;;;5.55;;
61104;SDS011;46987;32.638;-115.438;2023-08-31T03:55:51;17.90;;;5.00;;
61104;SDS011;46987;32.638;-115.438;2023-08-31T03:58:18;14.63;;;5.03;;
61104;SDS011;46987;32.638;-115.438;2023-08-31T04:00:50;13.07;;;4.57;;
61104;SDS011;46987;32.638;-115.438;2023-08-31T04:03:18;12.05;;;5.25;;
61104;SDS011;46987;32.638;-115.438;2023-08-31T04:05:47;15.73;;;4.78;;
61104;SDS011;46987;32.638;-115.438;2023-08-31T04:08:14;14.65;;;3.92;;
61104;SDS011;46987;32.638;-115.438;2023-08-31T04:10:41;12.27;;;4.20;;
61104;SDS011;46987;32.638;-115.438;2023-08-31T04:13:08;14.35;;;4.10;;
61104;SDS011;46987;32.638;-115.438;2023-08-31T04:15:34;12.13;;;4.03;;
61104;SDS011;46987;32.638;-115.438;2023-08-31T04:18:02;15.45;;;4.35;;
61104;SDS011;46987;32.638;-115.438;2023-08-31T04:20:29;11.55;;;4.22;;
61104;SDS011;46987;32.638;-115.438;2023-08-31T04:22:56;12.88;;;4.18;;
61104;SDS011;46987;32.638;-115.438;2023-08-31T04:25:23;13.43;;;4.03;;
61104;SDS011;46987;32.638;-115.438;2023-08-31T04:27:50;16.30;;;4.95;;
61104;SDS011;46987;32.638;-115.438;2023-08-31T04:30:16;16.60;;;4.60;;
61104;SDS011;46987;32.638;-115.438;2023-08-31T04:32:43;15.07;;;4.70;;
61104;SDS011;46987;32.638;-115.438;2023-08-31T04:35:12;18.80;;;4.80;;
61104;SDS011;46987;32.638;-115.438;2023-08-31T04:37:38;13.80;;;4.45;;
61104;SDS011;46987;32.638;-115.438;2023-08-31T04:40:05;15.02;;;5.03;;
61104;SDS011;46987;32.638;-115.438;2023-08-31T04:42:34;14.80;;;4.65;;
61104;SDS011;46987;32.638;-115.438;2023-08-31T04:45:01;12.77;;;4.55;;
61104;SDS011;46987;32.638;-115.438;2023-08-31T04:47:28;14.02;;;4.97;;
61104;SDS011;46987;32.638;-115.438;2023-08-31T04:49:55;16.30;;;4.68;;
61104;SDS011;46987;32.638;-115.438;2023-08-31T04:52:23;11.02;;;4.53;;
61104;SDS011;46987;32.638;-115.438;2023-08-31T04:54:50;13.88;;;5.75;;
61104;SDS011;46987;32.638;-115.438;2023-08-31T04:57:17;14.23;;;5.47;;
61104;SDS011;46987;32.638;-115.438;2023-08-31T04:59:43;12.30;;;5.15;;
61104;SDS011;46987;32.638;-115.438;2023-08-31T05:02:10;14.63;;;5.32;;
61104;SDS011;46987;32.638;-115.438;2023-08-31T05:04:37;15.50;;;4.75;;
61104;SDS011;46987;32.638;-115.438;2023-08-31T05:07:03;16.27;;;4.97;;
61104;SDS011;46987;32.638;-115.438;2023-08-31T05:09:36;12.82;;;4.72;;
61104;SDS011;46987;32.638;-115.438;2023-08-31T05:12:03;14.80;;;5.07;;
61104;SDS011;46987;32.638;-115.438;2023-08-31T05:14:38;15.70;;;5.57;;
61104;SDS011;46987;32.638;-115.438;2023-08-31T05:17:07;13.52;;;4.60;;
61104;SDS011;46987;32.638;-115.438;2023-08-31T05:19:34;16.75;;;5.55;;
61104;SDS011;46987;32.638;-115.438;2023-08-31T05:22:01;15.45;;;5.25;;
61104;SDS011;46987;32.638;-115.438;2023-08-31T05:24:27;16.27;;;4.70;;
61104;SDS011;46987;32.638;-115.438;2023-08-31T05:26:56;17.27;;;4.53;;
61104;SDS011;46987;32.638;-115.438;2023-08-31T05:29:23;14.15;;;4.70;;
61104;SDS011;46987;32.638;-115.438;2023-08-31T05:31:51;15.43;;;4.72;;
61104;SDS011;46987;32.638;-115.438;2023-08-31T05:34:21;14.85;;;4.90;;
61104;SDS011;46987;32.638;-115.438;2023-08-31T05:36:52;17.25;;;4.93;;
61104;SDS011;46987;32.638;-115.438;2023-08-31T05:39:22;16.20;;;4.90;;
61104;SDS011;46987;32.638;-115.438;2023-08-31T05:41:49;13.10;;;4.68;;
61104;SDS011;46987;32.638;-115.438;2023-08-31T05:44:18;15.70;;;5.20;;
61104;SDS011;46987;32.638;-115.438;2023-08-31T05:46:45;13.52;;;4.22;;
61104;SDS011;46987;32.638;-115.438;2023-08-31T05:49:12;13.60;;;4.40;;
61104;SDS011;46987;32.638;-115.438;2023-08-31T05:51:40;16.33;;;5.10;;
61104;SDS011;46987;32.638;-115.438;2023-08-31T05:54:07;16.35;;;4.40;;
61104;SDS011;46987;32.638;-115.438;2023-08-31T05:56:38;13.85;;;4.80;;
61104;SDS011;46987;32.638;-115.438;2023-08-31T05:59:06;16.42;;;5.25;;
61104;SDS011;46987;32.638;-115.438;2023-08-31T06:01:35;17.00;;;4.30;;
61104;SDS011;46987;32.638;-115.438;2023-08-31T06:04:03;11.90;;;5.30;;
61104;SDS011;46987;32.638;-115.438;2023-08-31T06:06:32;15.60;;;5.15;;
61104;SDS011;46987;32.638;-115.438;2023-08-31T06:09:04;15.25;;;4.53;;
61104;SDS011;46987;32.638;-115.438;2023-08-31T06:11:33;18.17;;;5.35;;
61104;SDS011;46987;32.638;-115.438;2023-08-31T06:14:01;15.80;;;5.60;;
61104;SDS011;46987;32.638;-115.438;2023-08-31T06:16:28;14.65;;;5.00;;
61104;SDS011;46987;32.638;-115.438;2023-08-31T06:18:57;16.15;;;5.25;;
61104;SDS011;46987;32.638;-115.438;2023-08-31T06:21:24;13.50;;;4.97;;
61104;SDS011;46987;32.638;-115.438;2023-08-31T06:23:52;15.80;;;5.38;;
61104;SDS011;46987;32.638;-115.438;2023-08-31T06:26:19;16.42;;;5.28;;
61104;SDS011;46987;32.638;-115.438;2023-08-31T06:28:46;17.33;;;5.65;;
61104;SDS011;46987;32.638;-115.438;2023-08-31T06:31:13;14.52;;;4.93;;
61104;SDS011;46987;32.638;-115.438;2023-08-31T06:33:40;17.73;;;5.35;;
61104;SDS011;46987;32.638;-115.438;2023-08-31T06:36:10;16.17;;;5.13;;
61104;SDS011;46987;32.638;-115.438;2023-08-31T06:38:37;14.00;;;4.85;;
61104;SDS011;46987;32.638;-115.438;2023-08-31T06:41:05;19.92;;;6.07;;
61104;SDS011;46987;32.638;-115.438;2023-08-31T06:43:32;14.02;;;4.82;;
61104;SDS011;46987;32.638;-115.438;2023-08-31T06:45:59;16.95;;;5.32;;
61104;SDS011;46987;32.638;-115.438;2023-08-31T06:48:26;14.10;;;5.40;;
61104;SDS011;46987;32.638;-115.438;2023-08-31T06:50:52;12.32;;;5.30;;
61104;SDS011;46987;32.638;-115.438;2023-08-31T06:53:21;22.95;;;5.85;;
61104;SDS011;46987;32.638;-115.438;2023-08-31T06:55:47;15.65;;;4.88;;
61104;SDS011;46987;32.638;-115.438;2023-08-31T06:58:14;14.52;;;5.25;;
61104;SDS011;46987;32.638;-115.438;2023-08-31T07:00:41;15.98;;;5.43;;
61104;SDS011;46987;32.638;-115.438;2023-08-31T07:03:08;14.55;;;5.50;;
61104;SDS011;46987;32.638;-115.438;2023-08-31T07:05:36;15.48;;;5.60;;
61104;SDS011;46987;32.638;-115.438;2023-08-31T07:08:08;16.52;;;4.97;;
61104;SDS011;46987;32.638;-115.438;2023-08-31T07:10:36;14.38;;;4.93;;
61104;SDS011;46987;32.638;-115.438;2023-08-31T07:13:03;12.52;;;5.30;;
61104;SDS011;46987;32.638;-115.438;2023-08-31T07:15:30;14.82;;;5.28;;
61104;SDS011;46987;32.638;-115.438;2023-08-31T07:17:57;12.85;;;5.18;;
61104;SDS011;46987;32.638;-115.438;2023-08-31T07:20:23;16.42;;;5.18;;
61104;SDS011;46987;32.638;-115.438;2023-08-31T07:22:50;17.30;;;5.18;;
61104;SDS011;46987;32.638;-115.438;2023-08-31T07:25:17;17.48;;;5.03;;
61104;SDS011;46987;32.638;-115.438;2023-08-31T07:27:45;12.77;;;5.07;;
61104;SDS011;46987;32.638;-115.438;2023-08-31T07:30:12;15.10;;;4.60;;
61104;SDS011;46987;32.638;-115.438;2023-08-31T07:32:39;14.35;;;4.47;;
61104;SDS011;46987;32.638;-115.438;2023-08-31T07:35:06;12.70;;;4.82;;
61104;SDS011;46987;32.638;-115.438;2023-08-31T07:37:33;12.23;;;4.47;;
61104;SDS011;46987;32.638;-115.438;2023-08-31T07:40:00;14.10;;;4.78;;
61104;SDS011;46987;32.638;-115.438;2023-08-31T07:42:27;17.02;;;5.22;;
61104;SDS011;46987;32.638;-115.438;2023-08-31T07:44:55;15.40;;;4.20;;
61104;SDS011;46987;32.638;-115.438;2023-08-31T07:47:22;17.38;;;4.90;;
61104;SDS011;46987;32.638;-115.438;2023-08-31T07:49:49;15.75;;;3.90;;
61104;SDS011;46987;32.638;-115.438;2023-08-31T07:52:16;25.27;;;4.90;;
61104;SDS011;46987;32.638;-115.438;2023-08-31T07:54:42;19.65;;;4.53;;
61104;SDS011;46987;32.638;-115.438;2023-08-31T07:57:09;16.98;;;4.50;;
61104;SDS011;46987;32.638;-115.438;2023-08-31T07:59:36;11.73;;;4.10;;
61104;SDS011;46987;32.638;-115.438;2023-08-31T08:02:07;18.20;;;4.82;;
61104;SDS011;46987;32.638;-115.438;2023-08-31T08:04:33;12.68;;;4.03;;
61104;SDS011;46987;32.638;-115.438;2023-08-31T08:07:00;16.65;;;4.68;;
61104;SDS011;46987;32.638;-115.438;2023-08-31T08:09:28;13.32;;;4.15;;
61104;SDS011;46987;32.638;-115.438;2023-08-31T08:11:56;16.23;;;4.63;;
61104;SDS011;46987;32.638;-115.438;2023-08-31T08:14:22;17.27;;;4.38;;
61104;SDS011;46987;32.638;-115.438;2023-08-31T08:16:49;14.85;;;4.35;;
61104;SDS011;46987;32.638;-115.438;2023-08-31T08:19:22;15.30;;;4.03;;
61104;SDS011;46987;32.638;-115.438;2023-08-31T08:21:49;14.98;;;4.05;;
61104;SDS011;46987;32.638;-115.438;2023-08-31T08:24:16;17.85;;;5.15;;
61104;SDS011;46987;32.638;-115.438;2023-08-31T08:26:43;14.13;;;4.38;;
61104;SDS011;46987;32.638;-115.438;2023-08-31T08:29:10;17.77;;;4.45;;
61104;SDS011;46987;32.638;-115.438;2023-08-31T08:31:37;14.52;;;4.35;;
61104;SDS011;46987;32.638;-115.438;2023-08-31T08:34:03;15.75;;;4.70;;
61104;SDS011;46987;32.638;-115.438;2023-08-31T08:36:32;17.25;;;4.47;;
61104;SDS011;46987;32.638;-115.438;2023-08-31T08:38:58;14.25;;;4.30;;
61104;SDS011;46987;32.638;-115.438;2023-08-31T08:41:25;17.65;;;5.63;;
61104;SDS011;46987;32.638;-115.438;2023-08-31T08:43:54;16.17;;;5.25;;
61104;SDS011;46987;32.638;-115.438;2023-08-31T08:46:22;14.25;;;4.68;;
61104;SDS011;46987;32.638;-115.438;2023-08-31T08:48:49;17.02;;;4.85;;
61104;SDS011;46987;32.638;-115.438;2023-08-31T08:51:16;15.73;;;4.38;;
61104;SDS011;46987;32.638;-115.438;2023-08-31T08:53:45;13.38;;;4.85;;
61104;SDS011;46987;32.638;-115.438;2023-08-31T08:56:12;15.40;;;4.97;;
61104;SDS011;46987;32.638;-115.438;2023-08-31T08:58:39;16.25;;;4.70;;
61104;SDS011;46987;32.638;-115.438;2023-08-31T09:01:06;14.07;;;5.25;;
61104;SDS011;46987;32.638;-115.438;2023-08-31T09:03:34;17.58;;;5.13;;
61104;SDS011;46987;32.638;-115.438;2023-08-31T09:06:00;12.95;;;5.50;;
61104;SDS011;46987;32.638;-115.438;2023-08-31T09:08:29;14.05;;;5.45;;
61104;SDS011;46987;32.638;-115.438;2023-08-31T09:10:57;17.23;;;6.00;;
61104;SDS011;46987;32.638;-115.438;2023-08-31T09:13:26;14.48;;;6.13;;
61104;SDS011;46987;32.638;-115.438;2023-08-31T09:15:53;17.38;;;6.40;;
61104;SDS011;46987;32.638;-115.438;2023-08-31T09:18:22;14.27;;;5.63;;
61104;SDS011;46987;32.638;-115.438;2023-08-31T09:20:50;14.13;;;6.05;;
61104;SDS011;46987;32.638;-115.438;2023-08-31T09:23:17;23.25;;;6.50;;
61104;SDS011;46987;32.638;-115.438;2023-08-31T09:25:44;13.60;;;6.65;;
61104;SDS011;46987;32.638;-115.438;2023-08-31T09:28:13;15.27;;;6.85;;
61104;SDS011;46987;32.638;-115.438;2023-08-31T09:30:40;18.33;;;8.57;;
61104;SDS011;46987;32.638;-115.438;2023-08-31T09:33:07;15.35;;;7.65;;
61104;SDS011;46987;32.638;-115.438;2023-08-31T09:35:38;19.58;;;5.57;;
61104;SDS011;46987;32.638;-115.438;2023-08-31T09:38:07;19.17;;;5.80;;
61104;SDS011;46987;32.638;-115.438;2023-08-31T09:40:34;15.43;;;5.22;;
61104;SDS011;46987;32.638;-115.438;2023-08-31T09:43:01;21.73;;;5.82;;
61104;SDS011;46987;32.638;-115.438;2023-08-31T09:45:30;19.80;;;5.28;;
61104;SDS011;46987;32.638;-115.438;2023-08-31T09:47:59;17.58;;;5.05;;
61104;SDS011;46987;32.638;-115.438;2023-08-31T09:50:27;16.33;;;5.53;;
61104;SDS011;46987;32.638;-115.438;2023-08-31T09:52:55;13.20;;;5.30;;
61104;SDS011;46987;32.638;-115.438;2023-08-31T09:55:24;16.52;;;5.75;;
61104;SDS011;46987;32.638;-115.438;2023-08-31T09:57:52;15.25;;;5.32;;
61104;SDS011;46987;32.638;-115.438;2023-08-31T10:00:19;16.25;;;4.88;;
61104;SDS011;46987;32.638;-115.438;2023-08-31T10:02:47;15.05;;;4.78;;
61104;SDS011;46987;32.638;-115.438;2023-08-31T10:05:15;16.60;;;5.00;;
61104;SDS011;46987;32.638;-115.438;2023-08-31T10:07:42;13.10;;;4.65;;
61104;SDS011;46987;32.638;-115.438;2023-08-31T10:10:09;14.90;;;5.45;;
61104;SDS011;46987;32.638;-115.438;2023-08-31T10:12:36;15.93;;;4.38;;
61104;SDS011;46987;32.638;-115.438;2023-08-31T10:15:03;16.98;;;4.88;;
61104;SDS011;46987;32.638;-115.438;2023-08-31T10:17:32;15.18;;;5.03;;
61104;SDS011;46987;32.638;-115.438;2023-08-31T10:20:00;16.13;;;4.78;;
61104;SDS011;46987;32.638;-115.438;2023-08-31T10:22:27;14.82;;;4.78;;
61104;SDS011;46987;32.638;-115.438;2023-08-31T10:24:56;13.75;;;4.50;;
61104;SDS011;46987;32.638;-115.438;2023-08-31T10:27:24;14.30;;;5.25;;
61104;SDS011;46987;32.638;-115.438;2023-08-31T10:29:51;14.80;;;4.75;;
61104;SDS011;46987;32.638;-115.438;2023-08-31T10:32:17;15.88;;;5.57;;
61104;SDS011;46987;32.638;-115.438;2023-08-31T10:35:09;14.15;;;6.13;;
61104;SDS011;46987;32.638;-115.438;2023-08-31T10:37:36;16.55;;;6.78;;
61104;SDS011;46987;32.638;-115.438;2023-08-31T10:40:08;13.02;;;5.97;;
61104;SDS011;46987;32.638;-115.438;2023-08-31T10:42:44;16.13;;;5.13;;
61104;SDS011;46987;32.638;-115.438;2023-08-31T10:45:11;13.57;;;5.18;;
61104;SDS011;46987;32.638;-115.438;2023-08-31T10:47:38;16.35;;;5.03;;
61104;SDS011;46987;32.638;-115.438;2023-08-31T10:50:17;13.50;;;4.70;;
61104;SDS011;46987;32.638;-115.438;2023-08-31T10:52:45;16.70;;;5.20;;
61104;SDS011;46987;32.638;-115.438;2023-08-31T10:55:15;15.30;;;4.53;;
61104;SDS011;46987;32.638;-115.438;2023-08-31T10:57:42;14.52;;;5.97;;
61104;SDS011;46987;32.638;-115.438;2023-08-31T11:00:09;13.57;;;5.32;;
61104;SDS011;46987;32.638;-115.438;2023-08-31T11:02:38;16.65;;;5.72;;
61104;SDS011;46987;32.638;-115.438;2023-08-31T11:05:08;17.38;;;7.00;;
61104;SDS011;46987;32.638;-115.438;2023-08-31T11:07:37;16.45;;;5.93;;
61104;SDS011;46987;32.638;-115.438;2023-08-31T11:10:08;13.52;;;6.30;;
61104;SDS011;46987;32.638;-115.438;2023-08-31T11:12:36;18.00;;;6.30;;
61104;SDS011;46987;32.638;-115.438;2023-08-31T11:15:03;14.75;;;6.30;;
61104;SDS011;46987;32.638;-115.438;2023-08-31T11:17:30;12.77;;;5.68;;
61104;SDS011;46987;32.638;-115.438;2023-08-31T11:20:00;17.90;;;6.50;;
61104;SDS011;46987;32.638;-115.438;2023-08-31T11:22:27;18.85;;;7.22;;
61104;SDS011;46987;32.638;-115.438;2023-08-31T11:24:56;11.95;;;5.28;;
61104;SDS011;46987;32.638;-115.438;2023-08-31T11:27:23;20.95;;;5.75;;
61104;SDS011;46987;32.638;-115.438;2023-08-31T11:29:49;18.85;;;5.70;;
61104;SDS011;46987;32.638;-115.438;2023-08-31T11:32:16;13.20;;;4.80;;
61104;SDS011;46987;32.638;-115.438;2023-08-31T11:34:43;13.13;;;4.75;;
61104;SDS011;46987;32.638;-115.438;2023-08-31T11:37:10;12.55;;;4.13;;
61104;SDS011;46987;32.638;-115.438;2023-08-31T11:39:37;11.32;;;3.85;;
61104;SDS011;46987;32.638;-115.438;2023-08-31T11:42:07;10.32;;;4.57;;
61104;SDS011;46987;32.638;-115.438;2023-08-31T11:44:34;10.93;;;3.88;;
61104;SDS011;46987;32.638;-115.438;2023-08-31T11:47:01;14.57;;;4.65;;
61104;SDS011;46987;32.638;-115.438;2023-08-31T11:49:27;14.73;;;4.22;;
61104;SDS011;46987;32.638;-115.438;2023-08-31T11:51:54;12.13;;;4.93;;
61104;SDS011;46987;32.638;-115.438;2023-08-31T11:54:21;11.05;;;4.00;;
61104;SDS011;46987;32.638;-115.438;2023-08-31T11:56:50;10.38;;;4.68;;
61104;SDS011;46987;32.638;-115.438;2023-08-31T11:59:19;15.10;;;5.20;;
61104;SDS011;46987;32.638;-115.438;2023-08-31T12:01:46;14.60;;;4.93;;
61104;SDS011;46987;32.638;-115.438;2023-08-31T12:04:14;13.30;;;4.18;;
61104;SDS011;46987;32.638;-115.438;2023-08-31T12:06:41;11.95;;;4.53;;
61104;SDS011;46987;32.638;-115.438;2023-08-31T12:09:08;10.45;;;3.85;;
61104;SDS011;46987;32.638;-115.438;2023-08-31T12:11:35;13.65;;;4.40;;
61104;SDS011;46987;32.638;-115.438;2023-08-31T12:14:01;11.68;;;4.20;;
61104;SDS011;46987;32.638;-115.438;2023-08-31T12:16:35;12.68;;;3.85;;
61104;SDS011;46987;32.638;-115.438;2023-08-31T12:19:02;14.82;;;4.07;;
61104;SDS011;46987;32.638;-115.438;2023-08-31T12:21:32;10.32;;;3.45;;
61104;SDS011;46987;32.638;-115.438;2023-08-31T12:23:58;12.57;;;4.57;;
61104;SDS011;46987;32.638;-115.438;2023-08-31T12:26:25;15.40;;;4.57;;
61104;SDS011;46987;32.638;-115.438;2023-08-31T12:28:52;12.23;;;4.38;;
61104;SDS011;46987;32.638;-115.438;2023-08-31T12:31:18;12.32;;;4.70;;
61104;SDS011;46987;32.638;-115.438;2023-08-31T12:33:47;12.85;;;4.85;;
61104;SDS011;46987;32.638;-115.438;2023-08-31T12:36:14;12.98;;;4.35;;
61104;SDS011;46987;32.638;-115.438;2023-08-31T12:38:40;14.13;;;4.50;;
61104;SDS011;46987;32.638;-115.438;2023-08-31T12:41:07;12.20;;;5.07;;
61104;SDS011;46987;32.638;-115.438;2023-08-31T12:43:35;9.95;;;4.22;;
61104;SDS011;46987;32.638;-115.438;2023-08-31T12:46:01;13.40;;;5.18;;
61104;SDS011;46987;32.638;-115.438;2023-08-31T12:48:31;10.52;;;4.05;;
61104;SDS011;46987;32.638;-115.438;2023-08-31T12:51:00;15.45;;;5.03;;
61104;SDS011;46987;32.638;-115.438;2023-08-31T12:53:27;18.17;;;4.43;;
61104;SDS011;46987;32.638;-115.438;2023-08-31T12:55:53;15.50;;;5.28;;
61104;SDS011;46987;32.638;-115.438;2023-08-31T12:58:23;13.63;;;5.22;;
61104;SDS011;46987;32.638;-115.438;2023-08-31T13:00:50;17.27;;;5.53;;
61104;SDS011;46987;32.638;-115.438;2023-08-31T13:03:19;15.52;;;4.47;;
61104;SDS011;46987;32.638;-115.438;2023-08-31T13:05:46;21.73;;;5.80;;
61104;SDS011;46987;32.638;-115.438;2023-08-31T13:08:14;19.73;;;5.55;;
61104;SDS011;46987;32.638;-115.438;2023-08-31T13:10:41;17.08;;;5.20;;
61104;SDS011;46987;32.638;-115.438;2023-08-31T13:13:07;15.75;;;5.53;;
61104;SDS011;46987;32.638;-115.438;2023-08-31T13:15:34;17.08;;;4.97;;
61104;SDS011;46987;32.638;-115.438;2023-08-31T13:18:01;15.75;;;5.68;;
61104;SDS011;46987;32.638;-115.438;2023-08-31T13:20:28;19.10;;;5.55;;
61104;SDS011;46987;32.638;-115.438;2023-08-31T13:22:54;18.70;;;5.88;;
61104;SDS011;46987;32.638;-115.438;2023-08-31T13:25:22;13.85;;;4.60;;
61104;SDS011;46987;32.638;-115.438;2023-08-31T13:27:49;16.15;;;5.43;;
61104;SDS011;46987;32.638;-115.438;2023-08-31T13:30:16;14.15;;;4.78;;
61104;SDS011;46987;32.638;-115.438;2023-08-31T13:32:42;15.48;;;4.55;;
61104;SDS011;46987;32.638;-115.438;2023-08-31T13:35:10;14.02;;;4.70;;
61104;SDS011;46987;32.638;-115.438;2023-08-31T13:37:36;14.25;;;5.07;;
61104;SDS011;46987;32.638;-115.438;2023-08-31T13:40:03;15.02;;;5.53;;
61104;SDS011;46987;32.638;-115.438;2023-08-31T13:42:35;14.15;;;4.72;;
61104;SDS011;46987;32.638;-115.438;2023-08-31T13:45:06;17.15;;;5.50;;
61104;SDS011;46987;32.638;-115.438;2023-08-31T13:47:33;14.88;;;5.28;;
61104;SDS011;46987;32.638;-115.438;2023-08-31T13:49:59;16.10;;;5.10;;
61104;SDS011;46987;32.638;-115.438;2023-08-31T13:52:26;16.75;;;5.70;;
61104;SDS011;46987;32.638;-115.438;2023-08-31T13:54:53;19.98;;;6.53;;
61104;SDS011;46987;32.638;-115.438;2023-08-31T13:57:19;17.67;;;5.53;;
61104;SDS011;46987;32.638;-115.438;2023-08-31T13:59:48;15.93;;;5.43;;